createdAt,value
2019-02-25T00:03:57.590Z,2.72
2019-02-25T00:06:24.808Z,2.64
2019-02-25T00:09:04.278Z,2.58
2019-02-25T00:14:51.485Z,2.42
2019-02-25T00:17:18.680Z,2.43
2019-02-25T00:25:27.047Z,2.34
2019-02-25T00:27:54.284Z,2.29
2019-02-25T00:30:23.248Z,2.26
2019-02-25T00:32:50.395Z,2.17
2019-02-25T00:35:17.693Z,2.13
2019-02-25T00:37:44.897Z,2.12
2019-02-25T00:40:52.923Z,2.07
2019-02-25T00:43:20.432Z,2.07
2019-02-25T00:46:28.455Z,2.03
2019-02-25T00:48:55.627Z,2.00
2019-02-25T00:51:22.827Z,1.93
2019-02-25T00:53:50.484Z,1.90
2019-02-25T00:56:17.734Z,1.87
2019-02-25T01:01:45.794Z,1.81
2019-02-25T01:04:12.968Z,1.80
2019-02-25T01:06:40.161Z,1.83
2019-02-25T01:14:45.084Z,1.86
2019-02-25T01:17:12.234Z,1.80
2019-02-25T01:19:39.416Z,1.79
2019-02-25T01:22:06.624Z,1.84
2019-02-25T01:24:34.147Z,1.87
2019-02-25T01:27:01.373Z,1.90
2019-02-25T01:29:28.605Z,1.94
2019-02-25T01:31:55.755Z,1.96
2019-02-25T01:34:22.940Z,1.96
2019-02-25T01:36:50.141Z,1.93
2019-02-25T01:39:37.062Z,1.96
2019-02-25T01:42:04.239Z,2.00
2019-02-25T01:44:31.432Z,2.08
2019-02-25T01:46:58.576Z,2.14
2019-02-25T01:49:25.781Z,2.19
2019-02-25T01:51:52.940Z,2.21
2019-02-25T01:54:20.131Z,2.27
2019-02-25T01:57:06.807Z,2.31
2019-02-25T01:59:53.689Z,2.34
2019-02-25T02:02:20.926Z,2.41
2019-02-25T02:07:47.521Z,2.34
2019-02-25T02:13:27.893Z,2.32
2019-02-25T02:15:55.308Z,2.33
2019-02-25T02:18:22.470Z,2.37
2019-02-25T02:20:49.552Z,2.39
2019-02-25T02:23:16.742Z,2.41
2019-02-25T02:25:43.940Z,2.37
2019-02-25T02:28:11.152Z,2.36
2019-02-25T02:33:46.837Z,2.38
2019-02-25T02:39:22.224Z,2.32
2019-02-25T02:42:28.306Z,2.31
2019-02-25T02:48:21.971Z,2.24
2019-02-25T02:53:57.270Z,2.07
2019-02-25T03:00:04.520Z,1.92
2019-02-25T03:06:05.225Z,1.74
2019-02-25T03:08:32.411Z,1.64
2019-02-25T03:14:00.965Z,1.74
2019-02-25T03:16:28.163Z,1.72
2019-02-25T03:18:55.329Z,1.65
2019-02-25T03:24:56.359Z,1.50
2019-02-25T03:27:36.129Z,1.42
2019-02-25T03:30:45.108Z,1.38
2019-02-25T03:36:32.539Z,1.37
2019-02-25T03:39:19.206Z,1.44
2019-02-25T03:41:46.414Z,1.48
2019-02-25T03:44:13.612Z,1.52
2019-02-25T03:46:40.800Z,1.52
2019-02-25T03:49:08.015Z,1.64
2019-02-25T03:51:35.205Z,1.89
2019-02-25T03:57:03.598Z,2.19
2019-02-25T03:59:30.867Z,2.13
2019-02-25T04:05:00.503Z,1.87
2019-02-25T04:07:34.794Z,1.75
2019-02-25T04:10:02.049Z,1.75
2019-02-25T04:13:11.817Z,1.70
2019-02-25T04:18:19.532Z,1.62
2019-02-25T04:24:20.554Z,1.58
2019-02-25T04:26:59.735Z,1.62
2019-02-25T04:29:26.973Z,1.61
2019-02-25T04:31:54.153Z,1.56
2019-02-25T04:34:21.683Z,1.51
2019-02-25T04:45:53.181Z,1.53
2019-02-25T04:54:33.687Z,2.03
2019-02-25T04:57:00.929Z,1.93
2019-02-25T05:02:08.491Z,1.75
2019-02-25T05:07:15.992Z,1.61
2019-02-25T05:09:43.258Z,1.56
2019-02-25T05:12:10.477Z,1.45
2019-02-25T05:14:37.674Z,1.30
2019-02-25T05:17:04.856Z,1.14
2019-02-25T05:19:51.620Z,1.05
2019-02-25T05:22:19.131Z,0.95
2019-02-25T05:25:05.834Z,0.93
2019-02-25T05:31:25.489Z,0.83
2019-02-25T05:33:52.884Z,0.78
2019-02-25T05:37:00.962Z,0.79
2019-02-25T05:39:28.145Z,0.75
2019-02-25T05:41:55.315Z,0.69
2019-02-25T05:44:34.927Z,0.69
2019-02-25T05:47:02.084Z,0.69
2019-02-25T05:49:29.583Z,0.75
2019-02-25T05:51:57.199Z,0.75
2019-02-25T05:54:24.316Z,0.72
2019-02-25T05:56:51.480Z,0.67
2019-02-25T05:59:19.080Z,0.62
2019-02-25T06:08:07.459Z,0.68
2019-02-25T06:10:34.645Z,0.75
2019-02-25T06:13:01.850Z,0.84
2019-02-25T06:15:29.080Z,0.86
2019-02-25T06:17:56.232Z,0.88
2019-02-25T06:20:23.433Z,0.92
2019-02-25T06:22:50.664Z,0.92
2019-02-25T06:25:17.925Z,0.93
2019-02-25T06:28:05.411Z,0.90
2019-02-25T06:30:44.974Z,0.93
2019-02-25T06:33:53.064Z,0.93
2019-02-25T06:36:39.991Z,0.91
2019-02-25T06:39:07.642Z,0.97
2019-02-25T06:41:36.676Z,1.04
2019-02-25T06:44:03.872Z,1.12
2019-02-25T06:46:31.120Z,1.22
2019-02-25T06:48:58.214Z,1.38
2019-02-25T06:51:37.748Z,1.56
2019-02-25T06:54:05.248Z,2.65
2019-02-25T06:57:13.306Z,4.78
2019-02-25T06:59:40.472Z,6.01
2019-02-25T07:02:48.542Z,6.94
2019-02-25T07:09:10.142Z,8.20
2019-02-25T07:11:57.338Z,9.17
2019-02-25T07:14:30.328Z,10.36
2019-02-25T07:17:17.061Z,11.30
2019-02-25T07:20:03.844Z,11.69
2019-02-25T07:26:10.512Z,11.11
2019-02-25T07:28:57.665Z,10.87
2019-02-25T07:31:44.471Z,11.61
2019-02-25T07:34:50.716Z,13.69
2019-02-25T07:37:37.484Z,16.19
2019-02-25T07:43:47.839Z,18.74
2019-02-25T07:46:27.234Z,21.22
2019-02-25T07:49:26.352Z,23.12
2019-02-25T07:52:13.070Z,24.62
2019-02-25T07:54:49.163Z,26.17
2019-02-25T08:00:56.293Z,28.39
2019-02-25T08:03:43.043Z,28.85
2019-02-25T08:06:30.220Z,29.51
2019-02-25T08:09:17.213Z,29.61
2019-02-25T08:12:04.058Z,30.03
2019-02-25T08:15:10.308Z,30.17
2019-02-25T08:17:57.260Z,30.41
2019-02-25T08:20:44.041Z,31.28
2019-02-25T08:23:52.097Z,31.54
2019-02-25T08:29:51.135Z,31.78
2019-02-25T08:32:37.980Z,32.13
2019-02-25T08:35:46.311Z,32.03
2019-02-25T08:41:40.773Z,30.96
2019-02-25T08:52:50.835Z,29.71
2019-02-25T08:55:18.060Z,30.48
2019-02-25T09:00:46.392Z,29.92
2019-02-25T09:03:13.475Z,29.81
2019-02-25T09:11:42.634Z,32.85
2019-02-25T09:14:09.827Z,32.25
2019-02-25T09:22:38.948Z,30.84
2019-02-25T09:25:47.226Z,29.24
2019-02-25T09:28:46.333Z,27.90
2019-02-25T09:34:47.494Z,22.43
2019-02-25T09:37:14.697Z,19.26
2019-02-25T09:39:41.873Z,17.83
2019-02-25T09:42:49.918Z,16.63
2019-02-25T09:45:17.099Z,15.47
2019-02-25T09:54:19.632Z,13.04
2019-02-25T09:57:06.686Z,12.70
2019-02-25T09:59:33.912Z,12.40
2019-02-25T10:02:01.082Z,12.13
2019-02-25T10:07:29.927Z,12.00
2019-02-25T10:09:57.103Z,11.89
2019-02-25T10:12:24.303Z,11.78
2019-02-25T10:14:51.547Z,11.62
2019-02-25T10:17:23.620Z,11.62
2019-02-25T10:23:07.269Z,11.58
2019-02-25T10:25:53.928Z,11.57
2019-02-25T10:28:21.159Z,11.58
2019-02-25T10:30:52.883Z,11.62
2019-02-25T10:34:18.409Z,11.63
2019-02-25T10:36:46.081Z,11.69
2019-02-25T10:39:34.446Z,11.76
2019-02-25T10:42:01.787Z,11.79
2019-02-25T10:45:31.327Z,11.83
2019-02-25T10:47:58.950Z,11.85
2019-02-25T10:50:55.722Z,11.84
2019-02-25T10:53:25.990Z,11.90
2019-02-25T10:56:32.148Z,11.94
2019-02-25T11:02:20.271Z,12.10
2019-02-25T11:04:49.267Z,12.19
2019-02-25T11:07:26.267Z,12.31
2019-02-25T11:13:08.539Z,12.38
2019-02-25T11:18:44.347Z,12.48
2019-02-25T11:21:44.255Z,12.53
2019-02-25T11:24:11.553Z,12.57
2019-02-25T11:26:59.377Z,12.62
2019-02-25T11:33:16.393Z,12.87
2019-02-25T11:45:36.447Z,13.13
2019-02-25T11:51:37.544Z,13.30
2019-02-25T11:54:04.732Z,13.35
2019-02-25T11:56:51.414Z,13.40
2019-02-25T11:59:18.594Z,13.47
2019-02-25T12:01:45.757Z,13.51
2019-02-25T12:04:12.970Z,13.59
2019-02-25T12:06:40.131Z,13.63
2019-02-25T12:12:08.160Z,13.65
2019-02-25T12:14:35.325Z,13.72
2019-02-25T12:17:02.509Z,13.79
2019-02-25T12:19:49.293Z,13.76
2019-02-25T12:22:17.009Z,13.93
2019-02-25T12:24:44.165Z,13.93
2019-02-25T12:27:52.229Z,13.96
2019-02-25T12:32:58.715Z,14.01
2019-02-25T12:35:25.922Z,14.06
2019-02-25T12:40:54.553Z,14.19
2019-02-25T12:43:53.686Z,14.24
2019-02-25T12:49:21.645Z,14.43
2019-02-25T12:52:00.809Z,14.44
2019-02-25T12:54:47.771Z,14.44
2019-02-25T12:57:14.999Z,14.48
2019-02-25T13:00:14.078Z,14.54
2019-02-25T13:06:03.898Z,14.58
2019-02-25T13:08:31.120Z,14.58
2019-02-25T13:10:58.638Z,14.58
2019-02-25T13:13:25.882Z,14.62
2019-02-25T13:18:44.757Z,14.72
2019-02-25T13:24:12.366Z,14.75
2019-02-25T13:26:39.577Z,14.78
2019-02-25T13:29:06.806Z,14.80
2019-02-25T13:32:14.861Z,14.81
2019-02-25T13:34:42.179Z,14.78
2019-02-25T13:37:12.079Z,14.81
2019-02-25T13:39:39.381Z,14.82
2019-02-25T13:42:06.960Z,14.84
2019-02-25T13:44:34.117Z,14.84
2019-02-25T13:47:01.659Z,14.84
2019-02-25T13:49:29.202Z,14.86
2019-02-25T13:51:56.368Z,14.86
2019-02-25T13:54:30.214Z,14.86
2019-02-25T13:56:57.534Z,14.83
2019-02-25T13:59:25.048Z,14.81
2019-02-25T14:01:52.266Z,14.78
2019-02-25T14:04:19.459Z,14.75
2019-02-25T14:06:46.671Z,14.73
2019-02-25T14:09:14.195Z,14.71
2019-02-25T14:14:54.404Z,14.69
2019-02-25T14:17:21.624Z,14.66
2019-02-25T14:19:48.812Z,14.67
2019-02-25T14:28:11.251Z,14.75
2019-02-25T14:30:51.650Z,14.84
2019-02-25T14:36:20.135Z,14.93
2019-02-25T14:38:47.339Z,14.90
2019-02-25T14:41:16.165Z,14.89
2019-02-25T14:44:02.174Z,14.99
2019-02-25T14:49:08.265Z,15.03
2019-02-25T14:51:42.772Z,15.04
2019-02-25T14:57:11.801Z,14.97
2019-02-25T14:59:38.945Z,15.04
2019-02-25T15:05:07.956Z,15.02
2019-02-25T15:07:36.938Z,15.05
2019-02-25T15:13:08.163Z,15.08
2019-02-25T15:15:55.032Z,15.13
2019-02-25T15:18:36.048Z,15.15
2019-02-25T15:25:08.541Z,15.20
2019-02-25T15:27:35.683Z,15.20
2019-02-25T15:30:43.767Z,15.20
2019-02-25T15:33:10.925Z,15.19
2019-02-25T15:35:57.524Z,15.18
2019-02-25T15:45:06.243Z,15.02
2019-02-25T15:47:34.133Z,14.96
2019-02-25T15:50:04.422Z,14.91
2019-02-25T15:52:51.033Z,14.87
2019-02-25T15:55:29.336Z,14.81
2019-02-25T15:58:37.396Z,14.75
2019-02-25T16:04:06.934Z,14.61
2019-02-25T16:09:48.823Z,14.40
2019-02-25T16:12:17.826Z,14.33
2019-02-25T16:15:04.532Z,14.25
2019-02-25T16:17:31.800Z,14.16
2019-02-25T16:29:30.796Z,13.82
2019-02-25T16:37:53.047Z,13.47
2019-02-25T16:43:40.023Z,13.24
2019-02-25T16:46:08.640Z,13.11
2019-02-25T16:48:48.267Z,13.04
2019-02-25T16:51:25.871Z,12.96
2019-02-25T16:54:06.894Z,12.88
2019-02-25T16:56:43.244Z,12.73
2019-02-25T16:59:53.337Z,12.56
2019-02-25T17:05:19.691Z,12.35
2019-02-25T17:07:48.890Z,12.25
2019-02-25T17:13:01.564Z,12.05
2019-02-25T17:21:33.575Z,12.08
2019-02-25T17:24:41.632Z,12.12
2019-02-25T17:30:29.872Z,11.69
2019-02-25T17:39:00.368Z,11.16
2019-02-25T17:41:27.590Z,11.19
2019-02-25T17:43:55.408Z,11.36
2019-02-25T17:46:34.959Z,11.86
2019-02-25T17:49:10.056Z,12.05
2019-02-25T17:51:43.904Z,11.89
2019-02-25T17:54:12.513Z,11.61
2019-02-25T17:56:51.432Z,11.35
2019-02-25T18:02:45.298Z,10.92
2019-02-25T18:05:14.176Z,10.68
2019-02-25T18:07:48.656Z,10.62
2019-02-25T18:13:43.069Z,10.33
2019-02-25T18:16:11.833Z,10.21
2019-02-25T18:18:45.813Z,10.08
2019-02-25T18:21:20.308Z,9.98
2019-02-25T18:23:49.355Z,9.99
2019-02-25T18:26:36.781Z,9.92
2019-02-25T18:29:46.475Z,9.81
2019-02-25T18:35:53.731Z,9.67
2019-02-25T18:41:00.065Z,9.54
2019-02-25T18:49:43.299Z,9.61
2019-02-25T18:52:10.460Z,9.59
2019-02-25T18:54:50.241Z,9.61
2019-02-25T18:57:18.844Z,9.59
2019-02-25T19:00:37.040Z,9.54
2019-02-25T19:15:32.125Z,9.05
2019-02-25T19:20:38.552Z,8.95
2019-02-25T19:23:16.543Z,8.88
2019-02-25T19:28:32.293Z,8.80
2019-02-25T19:30:59.483Z,8.82
2019-02-25T19:33:26.701Z,8.85
2019-02-25T19:35:54.376Z,8.83
2019-02-25T19:41:46.982Z,8.69
2019-02-25T19:44:14.859Z,8.58
2019-02-25T19:50:51.098Z,8.39
2019-02-25T19:53:42.949Z,8.28
2019-02-25T20:03:05.576Z,8.03
2019-02-25T20:05:38.690Z,7.97
2019-02-25T20:08:14.784Z,7.96
2019-02-25T20:10:43.796Z,7.98
2019-02-25T20:13:11.004Z,8.01
2019-02-25T20:15:42.421Z,8.02
2019-02-25T20:18:31.050Z,8.07
2019-02-25T20:24:07.762Z,7.99
2019-02-25T20:26:57.743Z,7.99
2019-02-25T20:32:36.447Z,7.98
2019-02-25T20:35:26.750Z,7.93
2019-02-25T20:38:05.177Z,7.86
2019-02-25T20:40:42.756Z,7.81
2019-02-25T20:43:10.034Z,7.72
2019-02-25T20:46:01.086Z,7.64
2019-02-25T20:51:38.963Z,7.52
2019-02-25T20:54:47.978Z,7.35
2019-02-25T21:00:24.334Z,7.13
2019-02-25T21:03:32.797Z,6.95
2019-02-25T21:06:01.066Z,6.77
2019-02-25T21:09:09.414Z,6.63
2019-02-25T21:11:44.786Z,6.49
2019-02-25T21:14:44.967Z,6.34
2019-02-25T21:19:52.667Z,6.29
2019-02-25T21:22:23.176Z,6.31
2019-02-25T21:28:44.238Z,6.20
2019-02-25T21:34:50.099Z,5.98
2019-02-25T21:37:21.338Z,5.90
2019-02-25T21:39:56.021Z,5.86
2019-02-25T21:42:30.867Z,5.82
2019-02-25T21:45:00.125Z,5.77
2019-02-25T21:48:30.263Z,5.74
2019-02-25T21:54:06.768Z,5.62
2019-02-25T21:56:54.833Z,5.55
2019-02-25T21:59:22.078Z,5.54
2019-02-25T22:02:30.065Z,5.53
2019-02-25T22:05:10.186Z,5.49
2019-02-25T22:07:38.462Z,5.41
2019-02-25T22:10:47.464Z,5.38
2019-02-25T22:13:16.385Z,5.33
2019-02-25T22:16:13.292Z,5.29
2019-02-25T22:24:38.205Z,5.18
2019-02-25T22:27:52.118Z,5.13
2019-02-25T22:30:19.674Z,5.09
2019-02-25T22:32:48.643Z,5.03
2019-02-25T22:35:15.826Z,4.99
2019-02-25T22:37:46.833Z,4.99
2019-02-25T22:43:52.341Z,4.93
2019-02-25T22:46:19.522Z,4.88
2019-02-25T22:48:47.286Z,4.88
2019-02-25T22:51:37.337Z,4.90
2019-02-25T22:57:34.928Z,4.93
2019-02-25T23:00:14.588Z,4.86
2019-02-25T23:02:54.696Z,4.76
2019-02-25T23:05:23.410Z,4.71
2019-02-25T23:08:44.272Z,4.67
2019-02-25T23:11:19.807Z,4.62
2019-02-25T23:14:13.685Z,4.59
2019-02-25T23:26:12.628Z,4.51
2019-02-25T23:29:41.123Z,4.55
2019-02-25T23:32:08.363Z,4.62
2019-02-25T23:34:38.343Z,4.69
2019-02-25T23:37:14.759Z,4.70
2019-02-25T23:39:49.795Z,4.71
2019-02-25T23:42:57.852Z,4.70
2019-02-25T23:48:46.574Z,4.75
2019-02-25T23:51:21.705Z,4.70
2019-02-25T23:53:57.643Z,4.67
2019-02-25T23:56:34.439Z,4.67
2019-02-25T23:59:01.698Z,4.60
